Time;durP1;ratioP1;P1;durP2;ratioP2;P2;SDS_P1;SDS_P2;PMS_P1;PMS_P2;Temp;Humidity;BMP_temperature;BMP_pressure;BME280_temperature;BME280_humidity;BME280_pressure;Samples;Min_cycle;Max_cycle;Signal;HPM_P1;HPM_P2
2021/01/28 00:01:18;;;;;;;5.82;2.97;;;2.50;95.20;;;;;;5005441;28;20046;-84
2021/01/28 00:03:49;;;;;;;6.88;3.78;;;2.50;95.20;;;;;;5007402;28;20234;-83
2021/01/28 00:06:17;;;;;;;5.88;3.05;;;2.60;94.70;;;;;;5002204;28;20046;-82
2021/01/28 00:08:44;;;;;;;5.00;3.08;;;2.60;95.00;;;;;;5008242;28;20054;-81
2021/01/28 00:11:11;;;;;;;5.00;2.63;;;2.60;94.70;;;;;;5006682;28;20289;-81
2021/01/28 00:13:38;;;;;;;6.32;3.22;;;2.50;94.90;;;;;;4990059;28;20061;-84
2021/01/28 00:16:05;;;;;;;7.85;3.83;;;2.50;95.00;;;;;;5036428;28;21061;-82
2021/01/28 00:18:33;;;;;;;8.38;3.20;;;2.50;95.00;;;;;;5015338;28;20042;-83
2021/01/28 00:21:00;;;;;;;8.05;3.88;;;2.50;95.10;;;;;;5004673;28;20046;-81
2021/01/28 00:23:32;;;;;;;7.00;3.03;;;2.60;94.90;;;;;;5036064;28;20058;-83
2021/01/28 00:26:11;;;;;;;6.65;2.95;;;2.60;94.90;;;;;;5021588;28;20070;-81
2021/01/28 00:28:39;;;;;;;6.53;3.55;;;2.60;94.50;;;;;;5024002;28;20411;-82
2021/01/28 00:31:06;;;;;;;5.13;3.10;;;2.60;94.60;;;;;;5004215;28;23281;-81
2021/01/28 00:33:34;;;;;;;5.95;3.33;;;2.60;95.10;;;;;;5008332;28;20398;-82
2021/01/28 00:36:07;;;;;;;6.07;3.88;;;2.70;94.70;;;;;;5004276;28;20069;-84
2021/01/28 00:38:37;;;;;;;6.00;3.38;;;2.70;94.30;;;;;;5014268;28;20046;-83
2021/01/28 00:41:06;;;;;;;5.82;3.25;;;2.70;94.50;;;;;;5001812;28;20160;-83
2021/01/28 00:43:33;;;;;;;6.60;3.65;;;2.60;94.40;;;;;;5002910;28;20054;-83
2021/01/28 00:46:09;;;;;;;6.03;3.17;;;2.60;94.60;;;;;;5000926;28;20069;-81
2021/01/28 00:48:37;;;;;;;6.68;3.45;;;2.60;94.80;;;;;;5003318;28;20137;-82
2021/01/28 00:51:05;;;;;;;6.13;3.60;;;2.60;94.70;;;;;;5029530;28;20223;-81
2021/01/28 00:53:32;;;;;;;8.15;4.15;;;2.60;94.90;;;;;;4995707;28;20049;-85
2021/01/28 00:56:01;;;;;;;7.20;3.72;;;2.60;94.90;;;;;;5019680;28;20045;-81
2021/01/28 00:58:54;;;;;;;9.65;3.42;;;2.60;95.00;;;;;;5022908;28;20053;-84
2021/01/28 01:01:25;;;;;;;6.78;3.65;;;2.60;95.00;;;;;;5019076;28;20054;-83
2021/01/28 01:03:54;;;;;;;6.75;3.70;;;2.60;94.90;;;;;;5004259;28;20265;-83
2021/01/28 01:06:21;;;;;;;7.50;4.07;;;2.60;95.20;;;;;;5006989;28;20054;-82
2021/01/28 01:09:02;;;;;;;7.28;3.47;;;2.60;94.80;;;;;;5004545;28;20127;-83
2021/01/28 01:11:50;;;;;;;10.05;3.67;;;2.60;94.70;;;;;;4991440;28;20054;-81
2021/01/28 01:14:18;;;;;;;6.30;3.20;;;2.60;94.90;;;;;;5006490;28;20057;-82
2021/01/28 01:16:45;;;;;;;6.93;3.10;;;2.70;94.90;;;;;;5020798;28;20363;-84
2021/01/28 01:19:20;;;;;;;7.60;3.95;;;2.70;94.70;;;;;;5020306;28;20050;-83
2021/01/28 01:22:20;;;;;;;7.32;3.38;;;2.70;94.60;;;;;;5022821;28;20033;-83
2021/01/28 01:24:50;;;;;;;7.18;3.47;;;2.70;94.50;;;;;;5011512;28;20042;-81
2021/01/28 01:27:17;;;;;;;7.40;3.78;;;2.70;94.70;;;;;;5036154;28;20061;-85
2021/01/28 01:29:52;;;;;;;6.82;3.75;;;2.70;94.70;;;;;;5019663;28;20076;-84
2021/01/28 01:32:30;;;;;;;6.95;4.05;;;2.80;94.50;;;;;;4990478;28;20096;-82
2021/01/28 01:35:26;;;;;;;8.57;3.65;;;2.80;94.50;;;;;;5007136;28;20389;-85
2021/01/28 01:37:56;;;;;;;9.55;4.00;;;2.70;94.50;;;;;;5019164;28;20618;-82
2021/01/28 01:40:29;;;;;;;8.10;4.03;;;2.80;94.50;;;;;;5015130;28;20045;-83
2021/01/28 01:42:58;;;;;;;7.00;4.15;;;2.80;94.40;;;;;;5017711;28;20057;-83
2021/01/28 01:45:31;;;;;;;8.57;3.70;;;2.80;94.50;;;;;;5000039;28;20136;-83
2021/01/28 01:48:05;;;;;;;6.75;4.00;;;2.70;94.60;;;;;;5018604;28;20065;-82
2021/01/28 01:50:46;;;;;;;11.57;4.75;;;2.80;94.60;;;;;;5004277;28;20376;-82
2021/01/28 01:53:21;;;;;;;7.70;3.83;;;2.80;94.70;;;;;;5004580;28;20073;-83
2021/01/28 01:55:53;;;;;;;7.95;3.50;;;2.80;94.70;;;;;;5016862;28;20401;-83
2021/01/28 01:58:48;;;;;;;16.10;3.78;;;2.80;94.50;;;;;;5017523;28;20045;-81
2021/01/28 02:01:37;;;;;;;6.28;3.50;;;2.90;94.50;;;;;;5004218;28;20054;-87
2021/01/28 02:04:23;;;;;;;7.38;3.00;;;2.90;94.60;;;;;;5028380;28;20419;-83
2021/01/28 02:07:18;;;;;;;7.53;3.55;;;2.90;94.50;;;;;;5002377;28;20074;-82
2021/01/28 02:10:07;;;;;;;7.65;4.07;;;3.00;94.20;;;;;;5002367;28;20394;-81
2021/01/28 02:12:55;;;;;;;7.83;3.37;;;3.00;94.50;;;;;;5005354;28;20348;-81
2021/01/28 02:15:25;;;;;;;7.28;3.05;;;3.00;94.40;;;;;;5017777;28;20069;-83
2021/01/28 02:17:56;;;;;;;8.23;4.07;;;3.00;94.30;;;;;;4992402;28;20271;-83
2021/01/28 02:21:04;;;;;;;8.40;3.45;;;3.00;94.50;;;;;;5020848;28;20052;-82
2021/01/28 02:23:46;;;;;;;8.50;4.15;;;3.10;94.30;;;;;;5037168;28;20395;-82
2021/01/28 02:26:26;;;;;;;6.32;3.10;;;3.00;94.10;;;;;;4987397;28;20742;-82
2021/01/28 02:28:56;;;;;;;5.15;3.20;;;3.00;94.00;;;;;;5012082;28;21138;-82
2021/01/28 02:31:26;;;;;;;6.55;3.13;;;3.00;94.10;;;;;;5001418;28;20129;-82
2021/01/28 02:33:56;;;;;;;5.97;3.20;;;3.10;93.90;;;;;;5004122;28;20377;-82
2021/01/28 02:36:32;;;;;;;7.90;2.83;;;3.10;93.90;;;;;;5003847;28;20118;-82
2021/01/28 02:39:13;;;;;;;7.30;3.55;;;3.10;93.80;;;;;;5015370;28;20077;-82
2021/01/28 02:41:47;;;;;;;6.13;3.35;;;3.10;93.70;;;;;;5019290;28;20160;-81
2021/01/28 02:44:25;;;;;;;6.22;3.67;;;3.10;94.00;;;;;;5020912;28;20065;-83
2021/01/28 02:47:22;;;;;;;7.75;3.15;;;3.10;93.90;;;;;;5019025;28;20045;-82
2021/01/28 02:50:25;;;;;;;8.13;4.38;;;3.20;93.70;;;;;;5007000;28;20297;-82
2021/01/28 02:52:56;;;;;;;7.45;3.47;;;3.10;93.80;;;;;;4985595;28;23002;-84
2021/01/28 02:55:27;;;;;;;7.53;4.50;;;3.20;94.00;;;;;;5028912;28;20064;-86
2021/01/28 02:57:58;;;;;;;5.93;3.90;;;3.20;94.00;;;;;;5050337;28;20113;-82
2021/01/28 03:00:31;;;;;;;9.00;3.53;;;3.30;93.80;;;;;;5021131;28;20077;-84
2021/01/28 03:02:59;;;;;;;6.28;4.10;;;3.30;93.10;;;;;;5033913;28;20069;-83
2021/01/28 03:05:41;;;;;;;8.10;3.50;;;3.20;93.40;;;;;;5013904;28;20062;-84
2021/01/28 03:08:09;;;;;;;7.88;3.90;;;3.20;93.80;;;;;;4999334;28;20086;-82
2021/01/28 03:10:37;;;;;;;6.53;3.38;;;3.20;93.50;;;;;;4996957;28;20046;-82
2021/01/28 03:13:10;;;;;;;9.00;3.97;;;3.40;93.60;;;;;;4973314;28;20226;-81
2021/01/28 03:15:47;;;;;;;11.32;5.07;;;3.50;93.00;;;;;;4984083;28;20066;-82
2021/01/28 03:18:14;;;;;;;7.68;3.63;;;3.40;92.80;;;;;;4995652;28;20081;-82
2021/01/28 03:20:42;;;;;;;7.13;3.28;;;3.40;92.90;;;;;;5005185;28;20053;-86
2021/01/28 03:23:25;;;;;;;7.15;3.55;;;3.20;93.40;;;;;;4988381;28;20042;-81
2021/01/28 03:26:22;;;;;;;7.45;3.83;;;3.20;93.30;;;;;;4985895;28;20062;-82
2021/01/28 03:28:51;;;;;;;7.78;4.15;;;3.10;93.90;;;;;;4996813;28;20384;-82
2021/01/28 03:31:25;;;;;;;7.20;4.32;;;3.10;93.80;;;;;;4984461;28;20532;-81
2021/01/28 03:33:55;;;;;;;9.00;4.00;;;3.10;93.80;;;;;;4983127;28;20135;-82
2021/01/28 03:36:26;;;;;;;10.43;4.03;;;3.10;94.10;;;;;;4997150;28;20047;-82
2021/01/28 03:38:57;;;;;;;7.88;3.38;;;3.10;94.20;;;;;;4967788;28;20258;-82
2021/01/28 03:41:25;;;;;;;7.80;3.83;;;3.10;94.10;;;;;;4984357;28;20110;-81
2021/01/28 03:43:53;;;;;;;8.25;3.85;;;3.00;94.00;;;;;;4996200;28;20046;-82
2021/01/28 03:46:27;;;;;;;8.20;3.65;;;3.10;94.10;;;;;;4985976;28;20073;-83
2021/01/28 03:48:56;;;;;;;;;;;3.10;94.00;;;;;;4980445;28;20250;-83
2021/01/28 03:51:49;;;;;;;6.38;2.95;;;3.00;94.00;;;;;;4999246;28;20148;-84
2021/01/28 03:54:46;;;;;;;7.65;3.40;;;3.10;94.00;;;;;;4997845;28;20054;-83
2021/01/28 03:57:26;;;;;;;6.03;3.00;;;3.10;94.00;;;;;;4978326;28;20053;-83
2021/01/28 04:00:00;;;;;;;8.10;3.67;;;3.10;94.20;;;;;;4983068;28;20060;-83
2021/01/28 04:02:49;;;;;;;8.00;3.80;;;3.10;94.10;;;;;;4997113;28;20441;-83
2021/01/28 04:05:35;;;;;;;6.03;3.33;;;3.20;94.10;;;;;;4985361;28;20066;-83
2021/01/28 04:08:21;;;;;;;11.02;4.50;;;3.20;94.00;;;;;;4994422;28;20089;-81
2021/01/28 04:11:09;;;;;;;9.02;4.38;;;3.30;93.90;;;;;;4980350;28;21278;-81
2021/01/28 04:13:37;;;;;;;8.68;3.67;;;3.20;93.60;;;;;;5013010;28;20054;-83
2021/01/28 04:16:07;;;;;;;7.97;4.25;;;3.40;93.60;;;;;;4971864;28;20105;-84
2021/01/28 04:18:45;;;;;;;7.25;3.60;;;3.30;93.00;;;;;;4984066;28;20393;-83
2021/01/28 04:21:36;;;;;;;10.60;3.78;;;3.20;93.50;;;;;;5025336;28;20261;-85
2021/01/28 04:24:05;;;;;;;;;;;3.40;93.20;;;;;;5020223;28;20159;-81
2021/01/28 04:26:55;;;;;;;6.53;2.83;;;3.30;93.30;;;;;;5000138;28;20530;-84
2021/01/28 04:29:40;;;;;;;7.80;3.70;;;3.30;93.00;;;;;;4991858;28;20078;-85
2021/01/28 04:32:26;;;;;;;7.47;3.97;;;3.30;92.80;;;;;;5008297;28;20061;-83
2021/01/28 04:35:12;;;;;;;7.65;4.47;;;3.30;93.00;;;;;;5007283;28;20997;-83
2021/01/28 04:37:43;;;;;;;7.80;3.38;;;3.30;92.90;;;;;;5012295;28;20263;-84
2021/01/28 04:40:26;;;;;;;8.35;3.80;;;3.30;92.90;;;;;;5024370;28;20050;-86
2021/01/28 04:42:57;;;;;;;8.95;3.63;;;3.30;93.20;;;;;;5019541;28;20065;-82
2021/01/28 04:45:31;;;;;;;9.05;3.88;;;3.20;93.30;;;;;;5044288;28;20183;-81
2021/01/28 04:48:04;;;;;;;9.63;5.00;;;3.20;93.00;;;;;;5025502;28;20042;-82
2021/01/28 04:50:51;;;;;;;10.57;4.78;;;3.20;93.20;;;;;;5005631;28;20057;-83
2021/01/28 04:53:33;;;;;;;9.65;4.50;;;3.30;93.20;;;;;;5009421;28;20108;-81
2021/01/28 04:56:17;;;;;;;8.02;4.47;;;3.30;92.70;;;;;;5015183;28;20054;-82
2021/01/28 04:59:10;;;;;;;8.20;4.65;;;3.20;92.90;;;;;;5040286;28;21102;-82
2021/01/28 05:01:39;;;;;;;11.73;5.15;;;3.00;93.60;;;;;;5017376;28;20116;-81
2021/01/28 05:04:38;;;;;;;10.55;5.07;;;3.00;94.00;;;;;;5001470;28;20374;-81
2021/01/28 05:07:29;;;;;;;10.57;5.50;;;3.00;94.00;;;;;;5032487;28;20329;-84
2021/01/28 05:10:46;;;;;;;13.15;5.68;;;3.00;94.20;;;;;;5030715;28;20057;-81
2021/01/28 05:13:34;;;;;;;16.63;6.95;;;2.90;94.50;;;;;;5005916;28;20379;-81
2021/01/28 05:16:28;;;;;;;14.23;6.03;;;3.00;94.70;;;;;;5016208;28;20069;-81
2021/01/28 05:19:39;;;;;;;14.30;6.60;;;3.10;94.20;;;;;;5005880;28;20245;-81
2021/01/28 05:22:24;;;;;;;12.82;5.38;;;3.20;94.00;;;;;;5017686;28;20060;-82
2021/01/28 05:25:15;;;;;;;11.32;5.05;;;3.10;94.00;;;;;;4994091;28;20072;-82
2021/01/28 05:28:23;;;;;;;12.23;5.20;;;3.00;94.10;;;;;;5006016;28;20408;-84
2021/01/28 05:31:17;;;;;;;10.95;4.70;;;3.10;94.40;;;;;;4995439;28;20046;-83
2021/01/28 05:33:51;;;;;;;8.82;5.35;;;3.30;93.80;;;;;;4984820;28;20099;-81
2021/01/28 05:36:51;;;;;;;15.00;5.80;;;3.30;93.50;;;;;;4999686;28;20054;-84
2021/01/28 05:39:28;;;;;;;10.68;5.00;;;3.30;93.10;;;;;;5009586;28;20045;-82
2021/01/28 05:42:20;;;;;;;9.50;4.55;;;3.30;93.00;;;;;;5038914;28;20054;-83
2021/01/28 05:44:48;;;;;;;9.38;4.80;;;3.30;93.20;;;;;;5031554;28;20054;-81
2021/01/28 05:47:26;;;;;;;11.35;5.00;;;3.30;93.30;;;;;;4997974;28;20057;-83
2021/01/28 05:50:23;;;;;;;8.60;5.03;;;3.20;93.40;;;;;;5004859;28;20049;-80
2021/01/28 05:52:52;;;;;;;10.93;5.50;;;3.20;93.60;;;;;;5008525;28;20050;-81
2021/01/28 05:55:34;;;;;;;10.63;5.45;;;3.20;93.60;;;;;;5003046;28;20104;-81
2021/01/28 05:58:23;;;;;;;9.77;5.05;;;3.10;94.10;;;;;;5021434;28;20057;-81
2021/01/28 06:00:58;;;;;;;9.27;3.83;;;3.10;93.90;;;;;;5010575;28;20115;-83
2021/01/28 06:04:03;;;;;;;9.45;4.90;;;3.20;93.60;;;;;;5022150;28;20166;-82
2021/01/28 06:07:24;;;;;;;7.93;3.72;;;3.20;93.70;;;;;;4986729;28;20050;-84
2021/01/28 06:10:58;;;;;;;11.00;4.38;;;3.30;93.50;;;;;;4994119;28;21029;-84
2021/01/28 06:14:09;;;;;;;10.82;4.72;;;3.40;93.20;;;;;;4999122;28;20053;-82
2021/01/28 06:17:09;;;;;;;9.15;4.70;;;3.30;92.80;;;;;;5000449;28;20092;-81
2021/01/28 06:20:17;;;;;;;10.20;4.68;;;3.30;93.00;;;;;;5002603;28;21122;-83
2021/01/28 06:22:58;;;;;;;13.18;5.50;;;3.40;92.80;;;;;;5007773;28;20147;-82
2021/01/28 06:26:31;;;;;;;10.70;4.82;;;3.30;92.60;;;;;;4985062;28;20106;-81
2021/01/28 06:29:50;;;;;;;11.93;5.38;;;3.30;92.90;;;;;;4984271;28;20053;-82
2021/01/28 06:33:00;;;;;;;14.73;4.70;;;3.30;92.90;;;;;;4979234;28;20054;-81
2021/01/28 06:36:04;;;;;;;7.68;3.97;;;3.30;92.80;;;;;;4980234;28;20057;-85
2021/01/28 06:39:17;;;;;;;10.40;4.15;;;3.20;92.80;;;;;;5014131;28;20064;-81
2021/01/28 06:42:19;;;;;;;10.07;3.97;;;3.20;93.40;;;;;;4983994;28;20266;-82
2021/01/28 06:45:10;;;;;;;9.75;4.40;;;3.30;93.20;;;;;;5012156;28;20077;-82
2021/01/28 06:48:05;;;;;;;12.02;4.32;;;3.30;92.90;;;;;;4999768;28;20110;-81
2021/01/28 06:50:44;;;;;;;10.20;4.35;;;3.30;93.10;;;;;;5020384;28;20042;-82
2021/01/28 06:53:16;;;;;;;11.45;5.50;;;;;;;;;;5017892;28;20409;-82
2021/01/28 06:56:30;;;;;;;10.90;4.47;;;3.20;93.40;;;;;;4985307;28;20667;-83
2021/01/28 06:59:47;;;;;;;12.45;5.35;;;3.20;93.10;;;;;;4999128;28;20334;-81
2021/01/28 07:02:31;;;;;;;11.20;5.15;;;3.20;93.20;;;;;;5036017;28;20345;-84
2021/01/28 07:05:30;;;;;;;13.88;5.90;;;3.20;93.50;;;;;;5000934;28;20053;-82
2021/01/28 07:08:03;;;;;;;10.18;4.88;;;3.20;93.30;;;;;;5021180;28;20347;-82
2021/01/28 07:10:42;;;;;;;10.68;5.43;;;3.20;93.20;;;;;;5007032;28;20070;-81
2021/01/28 07:13:34;;;;;;;11.98;5.75;;;3.20;93.30;;;;;;4988749;28;20054;-81
2021/01/28 07:16:34;;;;;;;10.73;4.60;;;3.30;93.00;;;;;;5004932;28;20054;-83
2021/01/28 07:19:11;;;;;;;15.15;6.15;;;3.30;93.00;;;;;;5007048;28;20061;-82
2021/01/28 07:21:43;;;;;;;13.50;6.38;;;3.30;92.90;;;;;;5017954;28;20064;-80
2021/01/28 07:24:31;;;;;;;14.25;6.55;;;3.20;93.10;;;;;;5007207;28;20081;-82
2021/01/28 07:27:02;;;;;;;12.18;5.70;;;3.20;93.30;;;;;;5004472;28;20095;-82
2021/01/28 07:29:55;;;;;;;16.08;6.10;;;3.20;93.40;;;;;;5005289;28;20069;-82
2021/01/28 07:32:55;;;;;;;11.70;5.88;;;3.20;93.50;;;;;;4971220;28;20058;-82
2021/01/28 07:35:57;;;;;;;11.15;5.15;;;3.20;93.70;;;;;;4981280;28;20559;-83
2021/01/28 07:38:54;;;;;;;11.23;5.65;;;3.30;93.20;;;;;;4999653;28;20357;-84
2021/01/28 07:41:55;;;;;;;11.85;5.32;;;3.30;93.30;;;;;;4999567;28;20074;-81
2021/01/28 07:44:55;;;;;;;13.00;5.90;;;3.30;93.20;;;;;;5033615;28;20089;-82
2021/01/28 07:47:50;;;;;;;13.40;5.55;;;3.30;93.10;;;;;;5015388;28;20054;-84
2021/01/28 07:50:34;;;;;;;14.50;7.82;;;3.30;93.00;;;;;;5020279;28;20084;-83
2021/01/28 07:53:43;;;;;;;13.30;5.90;;;3.40;92.90;;;;;;5006077;28;20765;-83
2021/01/28 07:56:42;;;;;;;13.17;7.67;;;3.40;93.00;;;;;;4998043;28;20061;-82
2021/01/28 07:59:17;;;;;;;13.93;6.30;;;3.30;93.20;;;;;;5003364;28;20088;-83
2021/01/28 08:01:49;;;;;;;15.70;6.07;;;3.30;93.50;;;;;;4993089;28;20050;-82
2021/01/28 08:04:29;;;;;;;12.23;5.63;;;3.20;93.40;;;;;;5007354;28;20050;-82
2021/01/28 08:07:00;;;;;;;14.38;7.15;;;3.30;93.50;;;;;;5037228;28;20112;-82
2021/01/28 08:09:33;;;;;;;12.30;5.60;;;3.20;93.50;;;;;;5008650;28;20092;-83
2021/01/28 08:12:01;;;;;;;18.20;6.90;;;3.20;93.70;;;;;;5023315;28;20064;-83
2021/01/28 08:14:34;;;;;;;13.00;5.75;;;3.30;94.00;;;;;;5007881;28;20061;-81
2021/01/28 08:17:02;;;;;;;9.25;5.00;;;3.40;93.70;;;;;;5003436;28;20054;-82
2021/01/28 08:19:32;;;;;;;10.75;4.85;;;3.40;93.50;;;;;;5003670;28;20038;-83
2021/01/28 08:22:10;;;;;;;13.70;6.25;;;3.40;93.30;;;;;;5008578;28;20058;-83
2021/01/28 08:24:39;;;;;;;15.15;7.40;;;3.50;93.40;;;;;;5012295;28;20269;-81
2021/01/28 08:27:12;;;;;;;14.40;7.03;;;3.50;93.20;;;;;;4993384;28;20057;-83
2021/01/28 08:29:40;;;;;;;16.70;6.70;;;3.40;93.50;;;;;;5007681;28;20148;-81
2021/01/28 08:32:20;;;;;;;13.05;6.78;;;3.60;93.30;;;;;;5003057;28;20046;-82
2021/01/28 08:34:57;;;;;;;14.27;6.20;;;3.50;92.90;;;;;;5022276;28;20169;-83
2021/01/28 08:37:28;;;;;;;11.27;5.88;;;3.50;93.30;;;;;;5004637;28;20120;-84
2021/01/28 08:39:57;;;;;;;13.10;6.30;;;3.60;92.90;;;;;;5022986;28;20132;-82
2021/01/28 08:42:27;;;;;;;17.13;7.97;;;3.50;92.70;;;;;;5026116;28;20729;-82
2021/01/28 08:45:19;;;;;;;16.98;7.65;;;3.50;93.00;;;;;;5003598;28;20049;-82
2021/01/28 08:48:13;;;;;;;19.25;6.13;;;3.40;93.10;;;;;;4985292;28;20078;-82
2021/01/28 08:50:43;;;;;;;13.90;5.78;;;3.50;93.10;;;;;;4994228;28;20330;-83
2021/01/28 08:53:17;;;;;;;13.55;6.22;;;3.40;93.50;;;;;;5000398;28;20304;-82
2021/01/28 08:55:45;;;;;;;12.13;5.20;;;3.60;93.60;;;;;;4971358;28;20058;-81
2021/01/28 08:58:30;;;;;;;13.93;5.57;;;3.60;93.00;;;;;;4989722;28;20050;-83
2021/01/28 09:01:00;;;;;;;10.52;4.55;;;3.60;93.00;;;;;;4989934;28;20511;-81
2021/01/28 09:03:33;;;;;;;11.93;4.70;;;3.70;92.90;;;;;;5000827;28;20061;-82
2021/01/28 09:06:03;;;;;;;14.57;6.32;;;3.70;93.00;;;;;;5017179;28;20058;-82
2021/01/28 09:08:39;;;;;;;13.45;6.70;;;3.60;92.90;;;;;;4977487;28;20122;-83
2021/01/28 09:11:10;;;;;;;10.32;4.65;;;3.70;93.10;;;;;;5002922;28;20046;-82
2021/01/28 09:13:38;;;;;;;;;;;3.70;93.00;;;;;;4990485;28;20061;-82
2021/01/28 09:16:11;;;;;;;9.98;5.32;;;3.70;92.80;;;;;;4990917;28;19926;-81
2021/01/28 09:18:41;;;;;;;14.23;5.95;;;3.70;92.90;;;;;;5005282;28;20059;-84
2021/01/28 09:21:11;;;;;;;10.75;5.70;;;3.70;93.00;;;;;;4993552;28;20121;-83
2021/01/28 09:23:55;;;;;;;16.15;5.72;;;3.70;93.30;;;;;;4992081;28;20050;-84
2021/01/28 09:26:25;;;;;;;11.32;6.50;;;3.70;93.10;;;;;;4980333;28;20417;-81
2021/01/28 09:28:54;;;;;;;10.45;5.90;;;3.70;92.80;;;;;;4998492;28;20318;-82
2021/01/28 09:31:31;;;;;;;9.68;5.57;;;3.80;92.80;;;;;;5006108;28;20069;-82
2021/01/28 09:34:13;;;;;;;10.77;4.57;;;3.80;92.80;;;;;;5003898;28;20057;-82
2021/01/28 09:36:42;;;;;;;10.07;4.07;;;3.90;92.60;;;;;;5003703;28;20368;-82
2021/01/28 09:39:20;;;;;;;9.73;4.50;;;3.90;92.10;;;;;;5027078;28;20123;-81
2021/01/28 09:41:52;;;;;;;35.95;22.33;;;3.70;92.40;;;;;;5042146;28;20227;-83
2021/01/28 09:44:32;;;;;;;22.98;13.90;;;3.70;92.60;;;;;;4981769;28;20282;-83
2021/01/28 09:47:22;;;;;;;30.08;19.80;;;3.80;92.70;;;;;;4981247;28;20178;-82
2021/01/28 09:49:52;;;;;;;19.98;10.48;;;3.80;93.00;;;;;;4979253;28;20401;-83
2021/01/28 09:52:30;;;;;;;64.90;42.42;;;3.90;92.70;;;;;;4985066;28;20130;-84
2021/01/28 09:55:04;;;;;;;25.27;13.45;;;3.80;92.90;;;;;;4983882;28;20055;-82
2021/01/28 09:57:32;;;;;;;10.35;4.55;;;3.90;92.90;;;;;;5000137;28;20054;-82
2021/01/28 10:00:00;;;;;;;12.10;8.55;;;3.80;92.80;;;;;;5003294;28;20060;-82
2021/01/28 10:02:36;;;;;;;15.82;10.25;;;3.90;92.60;;;;;;4987711;28;20118;-82
2021/01/28 10:05:08;;;;;;;8.93;5.05;;;3.80;92.40;;;;;;4994485;28;20050;-83
2021/01/28 10:07:37;;;;;;;4.18;2.10;;;3.90;92.50;;;;;;4988485;28;20076;-80
2021/01/28 10:10:06;;;;;;;11.88;6.45;;;3.90;93.00;;;;;;5014129;28;20158;-83
2021/01/28 10:12:35;;;;;;;6.57;3.37;;;4.00;93.00;;;;;;5014991;28;20054;-83
2021/01/28 10:15:04;;;;;;;1.55;0.38;;;4.00;92.50;;;;;;4984323;28;20054;-82
2021/01/28 10:17:31;;;;;;;1.17;0.40;;;3.90;92.60;;;;;;4986333;28;20078;-81
2021/01/28 10:20:05;;;;;;;0.70;0.35;;;4.00;92.70;;;;;;4982488;28;20046;-81
2021/01/28 10:22:35;;;;;;;;;;;4.00;92.20;;;;;;4981110;28;20432;-82
2021/01/28 10:25:07;;;;;;;0.70;0.40;;;4.00;92.30;;;;;;4995897;28;20499;-81
2021/01/28 10:27:34;;;;;;;1.85;0.40;;;4.00;92.40;;;;;;4985066;28;20050;-82
2021/01/28 10:30:02;;;;;;;1.77;1.13;;;4.00;92.50;;;;;;4988677;28;20065;-82
2021/01/28 10:32:33;;;;;;;1.75;0.75;;;4.00;92.50;;;;;;4986479;28;20073;-82
2021/01/28 10:35:02;;;;;;;2.00;0.65;;;4.10;92.30;;;;;;4985377;28;20368;-81
2021/01/28 10:37:30;;;;;;;0.73;0.38;;;4.00;92.50;;;;;;5014242;28;21157;-81
2021/01/28 10:40:00;;;;;;;0.98;0.22;;;4.10;92.50;;;;;;4974296;28;20134;-82
2021/01/28 10:42:38;;;;;;;0.38;0.20;;;4.20;92.30;;;;;;4984554;28;20058;-83
2021/01/28 10:45:08;;;;;;;2.10;0.73;;;4.10;92.00;;;;;;4985030;28;20165;-84
2021/01/28 10:47:41;;;;;;;0.40;0.30;;;4.10;92.30;;;;;;4985564;28;20043;-82
2021/01/28 10:50:24;;;;;;;0.80;0.30;;;4.10;91.80;;;;;;2452972;28;10022782;-83
2021/01/28 10:52:53;;;;;;;0.43;0.10;;;4.00;91.90;;;;;;3574576;28;10001251;-81
2021/01/28 10:55:25;;;;;;;1.60;0.30;;;4.10;92.10;;;;;;4987946;28;20047;-81
2021/01/28 10:57:55;;;;;;;0.50;0.20;;;4.10;92.00;;;;;;4961661;28;20118;-82
2021/01/28 11:00:24;;;;;;;0.13;0.10;;;4.20;92.00;;;;;;4962787;28;20062;-82
2021/01/28 11:02:54;;;;;;;0.80;0.30;;;4.10;92.00;;;;;;4971320;28;20111;-81
2021/01/28 11:05:26;;;;;;;4.53;0.40;;;4.10;92.30;;;;;;5004262;28;20046;-83
2021/01/28 11:07:54;;;;;;;0.45;0.15;;;4.10;92.10;;;;;;4983986;28;20070;-82
2021/01/28 11:10:44;;;;;;;2.28;0.52;;;4.20;91.90;;;;;;4969023;28;20046;-83
2021/01/28 11:13:16;;;;;;;0.82;0.25;;;4.20;91.90;;;;;;4979693;28;20050;-82
2021/01/28 11:15:43;;;;;;;0.97;0.30;;;4.20;92.00;;;;;;4981428;28;20062;-82
2021/01/28 11:18:11;;;;;;;1.77;0.20;;;4.20;92.40;;;;;;4982291;28;20354;-85
2021/01/28 11:20:41;;;;;;;0.10;0.10;;;4.10;92.30;;;;;;4990614;28;20190;-83
2021/01/28 11:23:09;;;;;;;0.50;0.20;;;4.10;92.50;;;;;;4976445;28;20354;-83
2021/01/28 11:25:37;;;;;;;0.55;0.25;;;4.10;92.20;;;;;;4989803;28;20086;-82
2021/01/28 11:28:06;;;;;;;1.00;0.35;;;4.10;92.80;;;;;;5003484;28;20350;-82
2021/01/28 11:30:37;;;;;;;1.33;0.40;;;4.10;92.80;;;;;;4973436;28;20050;-83
2021/01/28 11:33:07;;;;;;;2.00;0.40;;;4.10;92.80;;;;;;4989342;28;20459;-82
2021/01/28 11:35:38;;;;;;;1.20;0.50;;;4.10;92.70;;;;;;4985350;28;20051;-82
2021/01/28 11:38:07;;;;;;;1.33;0.50;;;4.10;92.40;;;;;;4986595;28;20059;-81
2021/01/28 11:40:55;;;;;;;2.10;1.17;;;4.10;92.50;;;;;;4969602;28;20226;-82
2021/01/28 11:43:24;;;;;;;5.18;1.52;;;4.30;92.30;;;;;;5002732;28;20101;-82
2021/01/28 11:45:55;;;;;;;7.22;2.15;;;4.30;92.00;;;;;;4992051;28;20253;-84
2021/01/28 11:48:28;;;;;;;3.88;1.38;;;4.30;92.40;;;;;;4995053;28;20065;-83
2021/01/28 11:50:56;;;;;;;4.97;1.40;;;4.40;92.30;;;;;;4984507;28;20042;-84
2021/01/28 11:53:26;;;;;;;3.72;1.08;;;4.40;92.40;;;;;;5017409;28;20055;-84
2021/01/28 11:55:56;;;;;;;2.20;0.82;;;4.50;92.60;;;;;;4949824;28;20386;-83
2021/01/28 11:58:24;;;;;;;3.78;1.25;;;4.60;92.00;;;;;;4977361;28;20265;-85
2021/01/28 12:00:53;;;;;;;3.75;1.13;;;4.80;91.60;;;;;;4974237;28;21097;-82
2021/01/28 12:03:21;;;;;;;2.97;1.17;;;4.80;91.40;;;;;;4974686;28;20055;-83
2021/01/28 12:05:49;;;;;;;4.93;1.17;;;4.70;91.50;;;;;;4981419;28;20059;-83
2021/01/28 12:08:17;;;;;;;2.75;1.08;;;4.80;92.20;;;;;;4976128;28;20058;-84
2021/01/28 12:10:45;;;;;;;2.90;1.05;;;4.90;92.00;;;;;;4995605;28;20054;-82
2021/01/28 12:13:13;;;;;;;3.80;1.50;;;4.70;91.50;;;;;;4980561;28;20078;-83
2021/01/28 12:15:41;;;;;;;3.78;0.98;;;4.70;92.40;;;;;;4979568;28;20058;-83
2021/01/28 12:18:10;;;;;;;2.22;1.10;;;4.80;92.20;;;;;;4993203;28;20413;-84
2021/01/28 12:20:38;;;;;;;2.22;0.80;;;5.00;91.80;;;;;;4979756;28;20058;-83
2021/01/28 12:23:06;;;;;;;2.47;0.95;;;5.10;91.20;;;;;;4981701;28;20091;-83
2021/01/28 12:25:33;;;;;;;2.55;0.90;;;5.00;91.00;;;;;;4993526;28;20262;-82
2021/01/28 12:28:00;;;;;;;0.80;0.70;;;5.00;91.40;;;;;;4987341;28;20089;-82
2021/01/28 12:30:30;;;;;;;4.93;0.70;;;5.10;91.20;;;;;;4968066;28;20039;-83
2021/01/28 12:32:57;;;;;;;3.85;1.48;;;5.10;91.30;;;;;;4986356;28;20047;-82
2021/01/28 12:35:24;;;;;;;5.45;2.33;;;5.20;90.90;;;;;;4980109;28;20113;-84
2021/01/28 12:37:52;;;;;;;5.97;2.40;;;5.30;90.80;;;;;;4972550;28;20253;-82
2021/01/28 12:40:25;;;;;;;4.88;2.05;;;5.30;90.80;;;;;;4997641;28;20059;-82
2021/01/28 12:42:52;;;;;;;6.10;2.85;;;5.40;90.60;;;;;;4960854;28;20047;-83
2021/01/28 12:45:19;;;;;;;5.32;2.28;;;5.40;90.50;;;;;;4967499;28;20055;-83
2021/01/28 12:47:46;;;;;;;4.55;2.13;;;5.50;90.30;;;;;;4979909;28;20062;-85
2021/01/28 12:50:15;;;;;;;4.85;1.63;;;5.40;90.70;;;;;;4975205;28;20062;-83
2021/01/28 12:52:43;;;;;;;3.25;1.45;;;5.40;90.40;;;;;;4995018;28;20342;-84
2021/01/28 12:55:12;;;;;;;1.95;1.20;;;5.50;90.30;;;;;;4979865;28;20055;-84
2021/01/28 12:57:39;;;;;;;3.60;1.38;;;5.40;90.40;;;;;;4990336;28;20058;-83
2021/01/28 13:00:11;;;;;;;2.90;1.45;;;5.40;90.60;;;;;;4963527;28;20278;-84
2021/01/28 13:02:43;;;;;;;1.55;0.80;;;5.30;90.80;;;;;;4975894;28;20055;-83
2021/01/28 13:05:13;;;;;;;3.22;1.00;;;5.30;90.90;;;;;;4960717;28;20055;-84
2021/01/28 13:07:44;;;;;;;3.22;1.38;;;5.20;90.80;;;;;;5006924;28;20062;-85
2021/01/28 13:10:21;;;;;;;2.83;1.20;;;5.10;91.00;;;;;;4994419;28;20313;-85
2021/01/28 13:12:49;;;;;;;3.65;1.20;;;5.10;91.30;;;;;;4983363;28;20117;-81
2021/01/28 13:15:20;;;;;;;2.22;1.17;;;5.00;91.60;;;;;;4974605;28;20242;-81
2021/01/28 13:17:57;;;;;;;2.67;1.10;;;5.00;91.80;;;;;;4973057;28;20283;-84
2021/01/28 13:20:25;;;;;;;1.73;0.88;;;4.90;91.80;;;;;;4954230;28;20250;-85
2021/01/28 13:22:55;;;;;;;3.08;1.50;;;4.90;91.80;;;;;;4973276;28;20316;-84
2021/01/28 13:25:27;;;;;;;1.38;0.93;;;5.00;91.90;;;;;;4957324;28;20058;-84
2021/01/28 13:27:55;;;;;;;4.97;1.48;;;5.00;92.00;;;;;;4990568;28;20043;-86
2021/01/28 13:30:24;;;;;;;3.85;1.27;;;5.10;91.80;;;;;;4959584;28;20321;-83
2021/01/28 13:32:55;;;;;;;4.10;1.05;;;5.20;91.80;;;;;;4973428;28;20426;-82
2021/01/28 13:35:25;;;;;;;2.00;1.05;;;5.20;91.80;;;;;;4976156;28;20150;-83
2021/01/28 13:37:54;;;;;;;2.93;0.93;;;5.20;91.70;;;;;;4965777;28;20063;-83
2021/01/28 13:40:26;;;;;;;4.80;2.08;;;5.20;91.90;;;;;;4955279;28;20058;-82
2021/01/28 13:42:53;;;;;;;2.35;1.40;;;5.20;91.90;;;;;;4956643;28;20082;-82
2021/01/28 13:45:23;;;;;;;2.97;1.05;;;5.10;91.90;;;;;;4989760;28;20055;-82
2021/01/28 13:47:50;;;;;;;2.13;1.08;;;5.10;91.90;;;;;;4969541;28;20290;-83
2021/01/28 13:50:20;;;;;;;3.95;2.05;;;5.00;91.90;;;;;;4972130;28;20062;-83